Hauptseite
METAR-TAF:

METAR-TAF

Flughäfen :

Siegerlandflughafen

Siegen, Deutschland

Breite: 50-42-28N, Länge: 008-04-59E, Höhe: 602 m

Beobachtung

Neuester Wetterbericht von vor 39 Minuten, um 15:20 UTC
Wind 6 kt aus Ost/Nordost, variierte zwischen Nord und Ost
Temperatur 24°C
Luftfeuchtigkeit 34%
Luftdruck 1026 hPa
Sichtweite 10 km oder mehr
keine Wolken unter 1500 m und keine Kumulonimbus oder Gewitterwolken

METAR: EDGS 231520Z 06006KT 360V100 CAVOK 24/07 Q1026

Zeit: 17:59 (15:59 UTC)

Prognose

Neuester Wetterbericht von vor 1 Stunde und 59 Minuten, um 14:00 UTC
Gültige Prognose vom 23 um 15 UTC bis 23 um 24 UTC
Wind 5 kt aus Ost
Sichtweite 10 km oder mehr
keine Wolken unter 1500 m und keine Kumulonimbus oder Gewitterwolken

TAF: EDGS 231400Z 2315/2324 09005KT CAVOK

Wetterbeobachtungen und Prognosen von mehr als 4000 Flughäfen (METAR und TAF Bericht).

Die verfügbaren Stationen werden durch gelbe und rote Markierungen auf der Karte dargestellt.

Führen Sie die Maus auf sie, um den Namen der Station zu sehen.

Darauf klicken, um die Beobachtung von Wetterbeobachtungen und Prognosen zu sehen.

Um die Karte zu ändern : klicken Sie auf den grünen Tasten mit einem schwarzen Kreuz Zum Vergrößern, auf den grünen Button mit einem Gedankenstrich zu verkleinern, oder auf die grünen Pfeile für benachbarte Karten.


METAR-TAF: